Hlavní strana
METAR-TAF:

METAR-TAF

Letiště :

Kastamonu, Turecko

zeměpisná šířka: 41-19-01N, zeměpisná délka: 33-47-46E, výška: 1073 m

Aktuální stav počasí

Zpráva byla vytvořena před 1 hodinou a 8 minutami, v 11:50 UTC
Západojihozápadní vítr 11 kt, proměnlivý mezi jihozápadním a západním
Teplota 27°C
Vlhkost vzduchu 30%
Tlak 1017 hPa
Viditelnost 10 km a více
Žádná oblačnost pod 1500 m, nevyskytují se cumulonimby.

METAR: LTAL 181150Z 25011KT 220V280 CAVOK 27/08 Q1017

Čas: 15:58 (12:58 UTC)

Předpověď počasí

Zpráva byla vytvořena před 2 hodinami a 18 minutami, v 10:40 UTC
Předpověď platná od 18 v 12 UTC do 18 v 21 UTC
Západoseverozápadní vítr 8 kt
Viditelnost 10 km a více
Žádná oblačnost pod 1500 m, nevyskytují se cumulonimby.
Změna
od 18 v 12 UTC do 18 v 13 UTC
Polojasno ve výšce 3200 ft

TAF: LTAL 181040Z 1812/1821 30008KT CAVOK BECMG 1812/1813 SCT032

Stav a předpovědi počasí z více než 4 000 letišť (zprávy METAR a TAF).

Červené a žluté tečky na mapě představují dostupné meteorologické stanice.

Když kurzor umístíte na tečku, zobrazí se název stanice.

Pak kliknutím zobrazíte stav a předpověď počasí.

Chcete-li změnit mapu, kliknutím na zelené tlačítko se znaménkem +mapu přiblížíte, kliknutím na zelené tlačítko se znaménkem – mapu oddálíte a kliknutím na zelené šipky přejdete na sousední mapy.


METAR-TAF: